Rechercher aéroport 
image banner adimage banner adimage banner ad
image banner ad

13CL - Maine Prairie

Situé à Dixon, United States

ICAO - 13CL, IATA -

Données fournies par Airmate  

Information générale

Coordonnées: N38°22'53" W121°49'25"
Élévation : 40 feet MSL.
Variation magnétique : 16° East
Voir autres Aéroports à California

Données opérationnelles

Special qualification required
Heure actuelle UTC:
Heure actuelle locale:
Météo à : KVCB - Nut Tree ( 12 km )
METAR: KVCB 251453Z AUTO 26007KT 10SM CLR 19/11 A2990 RMK AO2 SLP123 T01940106 51011
Voir NOTAMs / SUP AIP / TFR affectant cet aéroport [VIEW]
Fréquences de communication: [VIEW]

Pistes:

Identifiant RWYQFULongueur (ft)Largeur (ft)SurfaceLDA (ft)
16195050GRAVEL
34195050GRAVEL

Coordonnées de l'aéroport

Adresse: Dixon United States

Vue satellite de 13CL